sensor_id;sensor_type;location;lat;lon;timestamp;pressure;altitude;pressure_sealevel;temperature;humidity
28628;BME280;15815;46.760;19.604;2022-07-05T00:00:15;100151.66;;;24.80;53.93
28628;BME280;15815;46.760;19.604;2022-07-05T00:02:41;100155.03;;;24.79;53.82
28628;BME280;15815;46.760;19.604;2022-07-05T00:05:06;100155.81;;;24.79;53.66
28628;BME280;15815;46.760;19.604;2022-07-05T00:07:32;100153.72;;;24.80;53.88
28628;BME280;15815;46.760;19.604;2022-07-05T00:09:58;100151.66;;;24.80;53.91
28628;BME280;15815;46.760;19.604;2022-07-05T00:12:29;100140.16;;;24.80;53.63
28628;BME280;15815;46.760;19.604;2022-07-05T00:14:57;100143.53;;;24.79;54.09
28628;BME280;15815;46.760;19.604;2022-07-05T00:17:23;100130.47;;;24.78;54.18
28628;BME280;15815;46.760;19.604;2022-07-05T00:19:48;100132.53;;;24.77;54.38
28628;BME280;15815;46.760;19.604;2022-07-05T00:22:14;100128.31;;;24.73;54.47
28628;BME280;15815;46.760;19.604;2022-07-05T00:24:54;100124.09;;;24.68;54.72
28628;BME280;15815;46.760;19.604;2022-07-05T00:27:20;100132.44;;;24.66;54.66
28628;BME280;15815;46.760;19.604;2022-07-05T00:29:45;100116.47;;;24.65;54.82
28628;BME280;15815;46.760;19.604;2022-07-05T00:32:11;100116.97;;;24.63;55.29
28628;BME280;15815;46.760;19.604;2022-07-05T00:34:36;100101.53;;;24.61;55.25
28628;BME280;15815;46.760;19.604;2022-07-05T00:37:02;100100.47;;;24.58;55.77
28628;BME280;15815;46.760;19.604;2022-07-05T00:39:27;100096.81;;;24.58;55.84
28628;BME280;15815;46.760;19.604;2022-07-05T00:41:53;100100.44;;;24.53;55.73
28628;BME280;15815;46.760;19.604;2022-07-05T00:44:28;100094.91;;;24.49;55.65
28628;BME280;15815;46.760;19.604;2022-07-05T00:46:54;100097.72;;;24.44;55.42
28628;BME280;15815;46.760;19.604;2022-07-05T00:49:20;100090.63;;;24.39;55.88
28628;BME280;15815;46.760;19.604;2022-07-05T00:51:45;100085.38;;;24.38;56.04
28628;BME280;15815;46.760;19.604;2022-07-05T00:54:11;100084.28;;;24.35;57.04
28628;BME280;15815;46.760;19.604;2022-07-05T00:56:36;100090.25;;;24.31;56.95
28628;BME280;15815;46.760;19.604;2022-07-05T00:59:01;100090.19;;;24.26;56.90
28628;BME280;15815;46.760;19.604;2022-07-05T01:01:27;100080.72;;;24.20;57.00
28628;BME280;15815;46.760;19.604;2022-07-05T01:03:52;100086.41;;;24.14;57.24
28628;BME280;15815;46.760;19.604;2022-07-05T01:06:19;100090.28;;;24.11;57.64
28628;BME280;15815;46.760;19.604;2022-07-05T01:08:44;100094.13;;;24.08;57.54
28628;BME280;15815;46.760;19.604;2022-07-05T01:11:11;100093.56;;;24.04;57.30
28628;BME280;15815;46.760;19.604;2022-07-05T01:13:38;100096.44;;;24.04;57.24
28628;BME280;15815;46.760;19.604;2022-07-05T01:16:04;100094.88;;;24.03;56.86
28628;BME280;15815;46.760;19.604;2022-07-05T01:18:31;100092.78;;;24.03;57.00
28628;BME280;15815;46.760;19.604;2022-07-05T01:21:01;100100.59;;;24.03;56.81
28628;BME280;15815;46.760;19.604;2022-07-05T01:23:31;100105.06;;;24.04;56.48
28628;BME280;15815;46.760;19.604;2022-07-05T01:25:58;100103.47;;;24.03;56.35
28628;BME280;15815;46.760;19.604;2022-07-05T01:28:24;100111.31;;;24.02;56.10
28628;BME280;15815;46.760;19.604;2022-07-05T01:30:50;100109.44;;;23.99;56.46
28628;BME280;15815;46.760;19.604;2022-07-05T01:33:16;100111.25;;;23.97;56.84
28628;BME280;15815;46.760;19.604;2022-07-05T01:35:41;100114.63;;;23.95;56.38
28628;BME280;15815;46.760;19.604;2022-07-05T01:38:07;100116.91;;;23.91;56.17
28628;BME280;15815;46.760;19.604;2022-07-05T01:40:32;100114.53;;;23.90;55.61
28628;BME280;15815;46.760;19.604;2022-07-05T01:42:58;100121.88;;;23.91;55.42
28628;BME280;15815;46.760;19.604;2022-07-05T01:45:24;100125.53;;;23.91;55.45
28628;BME280;15815;46.760;19.604;2022-07-05T01:48:09;100125.31;;;23.95;55.72
28628;BME280;15815;46.760;19.604;2022-07-05T01:50:45;100117.97;;;23.94;55.36
28628;BME280;15815;46.760;19.604;2022-07-05T01:53:27;100123.72;;;23.94;55.38
28628;BME280;15815;46.760;19.604;2022-07-05T01:55:56;100109.88;;;23.92;55.10
28628;BME280;15815;46.760;19.604;2022-07-05T01:58:21;100110.38;;;23.91;55.19
28628;BME280;15815;46.760;19.604;2022-07-05T02:00:52;100110.38;;;23.91;54.73
28628;BME280;15815;46.760;19.604;2022-07-05T02:03:17;100123.94;;;23.90;54.48
28628;BME280;15815;46.760;19.604;2022-07-05T02:05:44;100131.75;;;23.90;53.95
28628;BME280;15815;46.760;19.604;2022-07-05T02:08:10;100131.25;;;23.91;53.38
28628;BME280;15815;46.760;19.604;2022-07-05T02:10:36;100128.69;;;23.93;53.17
28628;BME280;15815;46.760;19.604;2022-07-05T02:13:02;100122.44;;;23.95;52.69
28628;BME280;15815;46.760;19.604;2022-07-05T02:15:32;100125.09;;;23.98;52.57
28628;BME280;15815;46.760;19.604;2022-07-05T02:17:59;100115.97;;;24.00;52.19
28628;BME280;15815;46.760;19.604;2022-07-05T02:20:24;100122.78;;;24.02;52.14
28628;BME280;15815;46.760;19.604;2022-07-05T02:22:50;100118.34;;;24.01;51.95
28628;BME280;15815;46.760;19.604;2022-07-05T02:25:15;100120.41;;;24.01;51.77
28628;BME280;15815;46.760;19.604;2022-07-05T02:27:40;100117.53;;;24.01;51.96
28628;BME280;15815;46.760;19.604;2022-07-05T02:30:06;100110.22;;;24.00;52.07
28628;BME280;15815;46.760;19.604;2022-07-05T02:32:32;100108.16;;;24.00;53.14
28628;BME280;15815;46.760;19.604;2022-07-05T02:34:57;100107.06;;;23.98;52.13
28628;BME280;15815;46.760;19.604;2022-07-05T02:37:23;100108.88;;;23.95;52.01
28628;BME280;15815;46.760;19.604;2022-07-05T02:39:48;100117.19;;;23.93;51.95
28628;BME280;15815;46.760;19.604;2022-07-05T02:42:13;100107.00;;;23.92;51.79
28628;BME280;15815;46.760;19.604;2022-07-05T02:44:39;100119.00;;;23.91;51.24
28628;BME280;15815;46.760;19.604;2022-07-05T02:47:04;100121.56;;;23.89;52.07
28628;BME280;15815;46.760;19.604;2022-07-05T02:49:30;100126.53;;;23.88;51.09
28628;BME280;15815;46.760;19.604;2022-07-05T02:51:55;100120.78;;;23.88;51.67
28628;BME280;15815;46.760;19.604;2022-07-05T02:54:20;100116.34;;;23.87;51.34
28628;BME280;15815;46.760;19.604;2022-07-05T02:56:46;100106.16;;;23.86;51.51
28628;BME280;15815;46.760;19.604;2022-07-05T02:59:11;100105.66;;;23.88;51.73
28628;BME280;15815;46.760;19.604;2022-07-05T03:01:36;100110.88;;;23.89;51.15
28628;BME280;15815;46.760;19.604;2022-07-05T03:04:02;100110.66;;;23.93;51.14
28628;BME280;15815;46.760;19.604;2022-07-05T03:06:27;100100.75;;;23.94;50.68
28628;BME280;15815;46.760;19.604;2022-07-05T03:08:53;100115.41;;;23.96;50.46
28628;BME280;15815;46.760;19.604;2022-07-05T03:11:18;100114.69;;;24.01;50.26
28628;BME280;15815;46.760;19.604;2022-07-05T03:13:45;100107.41;;;24.05;50.30
28628;BME280;15815;46.760;19.604;2022-07-05T03:16:13;100103.03;;;24.10;50.16
28628;BME280;15815;46.760;19.604;2022-07-05T03:18:38;100112.25;;;24.14;50.32
28628;BME280;15815;46.760;19.604;2022-07-05T03:21:04;100104.19;;;24.18;50.13
28628;BME280;15815;46.760;19.604;2022-07-05T03:23:29;100104.75;;;24.22;49.83
28628;BME280;15815;46.760;19.604;2022-07-05T03:25:54;100097.22;;;24.25;50.06
28628;BME280;15815;46.760;19.604;2022-07-05T03:28:20;100092.25;;;24.25;49.61
28628;BME280;15815;46.760;19.604;2022-07-05T03:30:45;100101.16;;;24.27;50.19
28628;BME280;15815;46.760;19.604;2022-07-05T03:33:11;100086.00;;;24.27;50.32
28628;BME280;15815;46.760;19.604;2022-07-05T03:35:36;100091.28;;;24.28;50.27
28628;BME280;15815;46.760;19.604;2022-07-05T03:38:01;100094.44;;;24.30;50.54
28628;BME280;15815;46.760;19.604;2022-07-05T03:40:27;100085.31;;;24.32;50.12
28628;BME280;15815;46.760;19.604;2022-07-05T03:42:52;100091.56;;;24.30;49.60
28628;BME280;15815;46.760;19.604;2022-07-05T03:45:18;100092.53;;;24.27;49.14
28628;BME280;15815;46.760;19.604;2022-07-05T03:47:43;100094.44;;;24.30;49.49
28628;BME280;15815;46.760;19.604;2022-07-05T03:50:08;100085.88;;;24.36;49.60
28628;BME280;15815;46.760;19.604;2022-07-05T03:52:34;100100.31;;;24.42;48.74
28628;BME280;15815;46.760;19.604;2022-07-05T03:55:00;100098.28;;;24.48;49.67
28628;BME280;15815;46.760;19.604;2022-07-05T03:57:25;100094.69;;;24.53;50.03
28628;BME280;15815;46.760;19.604;2022-07-05T03:59:50;100103.84;;;24.57;49.55
28628;BME280;15815;46.760;19.604;2022-07-05T04:02:16;100100.97;;;24.57;49.47
28628;BME280;15815;46.760;19.604;2022-07-05T04:04:41;100095.00;;;24.60;49.46
28628;BME280;15815;46.760;19.604;2022-07-05T04:07:07;100092.50;;;24.68;48.66
28628;BME280;15815;46.760;19.604;2022-07-05T04:09:32;100084.47;;;24.78;48.00
28628;BME280;15815;46.760;19.604;2022-07-05T04:11:58;100091.59;;;24.88;48.14
28628;BME280;15815;46.760;19.604;2022-07-05T04:14:23;100090.97;;;24.99;48.11
28628;BME280;15815;46.760;19.604;2022-07-05T04:16:49;100093.38;;;25.06;47.19
28628;BME280;15815;46.760;19.604;2022-07-05T04:19:14;100097.06;;;25.12;47.51
28628;BME280;15815;46.760;19.604;2022-07-05T04:21:40;100098.41;;;25.16;47.41
28628;BME280;15815;46.760;19.604;2022-07-05T04:24:05;100091.69;;;25.25;48.15
28628;BME280;15815;46.760;19.604;2022-07-05T04:26:31;100104.06;;;25.37;49.02
28628;BME280;15815;46.760;19.604;2022-07-05T04:28:56;100100.44;;;25.47;47.49
28628;BME280;15815;46.760;19.604;2022-07-05T04:31:21;100113.88;;;25.56;47.64
28628;BME280;15815;46.760;19.604;2022-07-05T04:33:47;100111.06;;;25.67;47.17
28628;BME280;15815;46.760;19.604;2022-07-05T04:36:12;100110.63;;;25.80;47.87
28628;BME280;15815;46.760;19.604;2022-07-05T04:38:37;100103.63;;;25.92;47.71
28628;BME280;15815;46.760;19.604;2022-07-05T04:41:03;100108.41;;;26.06;47.86
28628;BME280;15815;46.760;19.604;2022-07-05T04:43:28;100112.63;;;26.22;47.16
28628;BME280;15815;46.760;19.604;2022-07-05T04:45:54;100116.66;;;26.36;46.27
28628;BME280;15815;46.760;19.604;2022-07-05T04:48:19;100121.13;;;26.48;46.09
28628;BME280;15815;46.760;19.604;2022-07-05T04:50:44;100125.38;;;26.58;45.47
28628;BME280;15815;46.760;19.604;2022-07-05T04:53:10;100119.09;;;26.65;46.30
28628;BME280;15815;46.760;19.604;2022-07-05T04:55:35;100120.66;;;26.72;47.50
28628;BME280;15815;46.760;19.604;2022-07-05T04:58:01;100116.47;;;26.78;46.46
28628;BME280;15815;46.760;19.604;2022-07-05T05:00:26;100114.13;;;26.83;46.29
28628;BME280;15815;46.760;19.604;2022-07-05T05:02:52;100121.75;;;26.86;46.08
28628;BME280;15815;46.760;19.604;2022-07-05T05:05:17;100122.25;;;26.90;45.82
28628;BME280;15815;46.760;19.604;2022-07-05T05:07:43;100122.53;;;26.92;45.70
28628;BME280;15815;46.760;19.604;2022-07-05T05:10:10;100126.19;;;26.92;46.58
28628;BME280;15815;46.760;19.604;2022-07-05T05:12:35;100122.78;;;26.94;45.76
28628;BME280;15815;46.760;19.604;2022-07-05T05:15:01;100127.25;;;26.95;45.81
28628;BME280;15815;46.760;19.604;2022-07-05T05:17:38;100135.63;;;26.98;46.01
28628;BME280;15815;46.760;19.604;2022-07-05T05:20:13;100139.59;;;27.01;46.51
28628;BME280;15815;46.760;19.604;2022-07-05T05:22:39;100139.84;;;27.03;47.06
28628;BME280;15815;46.760;19.604;2022-07-05T05:25:04;100144.56;;;27.06;46.58
28628;BME280;15815;46.760;19.604;2022-07-05T05:27:30;100152.19;;;27.09;46.92
28628;BME280;15815;46.760;19.604;2022-07-05T05:29:55;100155.84;;;27.09;46.67
28628;BME280;15815;46.760;19.604;2022-07-05T05:32:21;100157.16;;;27.08;47.25
28628;BME280;15815;46.760;19.604;2022-07-05T05:34:46;100160.84;;;27.09;47.45
28628;BME280;15815;46.760;19.604;2022-07-05T05:37:12;100166.09;;;27.10;48.33
28628;BME280;15815;46.760;19.604;2022-07-05T05:39:37;100161.09;;;27.11;47.44
28628;BME280;15815;46.760;19.604;2022-07-05T05:42:03;100162.69;;;27.12;48.44
28628;BME280;15815;46.760;19.604;2022-07-05T05:44:28;100167.16;;;27.13;49.66
28628;BME280;15815;46.760;19.604;2022-07-05T05:46:54;100171.06;;;27.10;49.83
28628;BME280;15815;46.760;19.604;2022-07-05T05:49:19;100163.19;;;27.10;50.08
28628;BME280;15815;46.760;19.604;2022-07-05T05:51:44;100161.91;;;27.17;50.65
28628;BME280;15815;46.760;19.604;2022-07-05T05:54:10;100163.72;;;27.31;49.71
28628;BME280;15815;46.760;19.604;2022-07-05T05:56:35;100150.34;;;27.51;50.07
28628;BME280;15815;46.760;19.604;2022-07-05T05:59:00;100139.59;;;27.68;49.50
28628;BME280;15815;46.760;19.604;2022-07-05T06:01:26;100141.91;;;27.86;49.66
28628;BME280;15815;46.760;19.604;2022-07-05T06:03:51;100137.38;;;28.08;48.94
28628;BME280;15815;46.760;19.604;2022-07-05T06:06:17;100138.38;;;28.27;48.94
28628;BME280;15815;46.760;19.604;2022-07-05T06:08:42;100134.31;;;28.47;48.17
28628;BME280;15815;46.760;19.604;2022-07-05T06:11:07;100141.63;;;28.59;46.57
28628;BME280;15815;46.760;19.604;2022-07-05T06:13:33;100145.75;;;28.69;45.63
28628;BME280;15815;46.760;19.604;2022-07-05T06:15:58;100156.50;;;28.80;46.05
28628;BME280;15815;46.760;19.604;2022-07-05T06:18:24;100154.38;;;28.86;46.27
28628;BME280;15815;46.760;19.604;2022-07-05T06:20:49;100162.72;;;28.95;46.80
28628;BME280;15815;46.760;19.604;2022-07-05T06:23:15;100161.31;;;29.07;47.33
28628;BME280;15815;46.760;19.604;2022-07-05T06:25:40;100154.91;;;29.20;46.81
28628;BME280;15815;46.760;19.604;2022-07-05T06:28:07;100146.66;;;29.30;45.85
28628;BME280;15815;46.760;19.604;2022-07-05T06:30:35;100161.59;;;29.39;46.28
28628;BME280;15815;46.760;19.604;2022-07-05T06:33:01;100156.72;;;29.53;46.68
28628;BME280;15815;46.760;19.604;2022-07-05T06:35:27;100150.53;;;29.68;46.51
28628;BME280;15815;46.760;19.604;2022-07-05T06:37:54;100151.50;;;29.76;46.18
28628;BME280;15815;46.760;19.604;2022-07-05T06:40:27;100144.56;;;29.84;45.61
28628;BME280;15815;46.760;19.604;2022-07-05T06:42:54;100133.66;;;29.96;45.19
28628;BME280;15815;46.760;19.604;2022-07-05T06:45:20;100128.50;;;30.08;45.45
28628;BME280;15815;46.760;19.604;2022-07-05T06:47:57;100132.16;;;30.14;45.38
28628;BME280;15815;46.760;19.604;2022-07-05T06:50:22;100130.19;;;30.22;44.04
28628;BME280;15815;46.760;19.604;2022-07-05T06:52:48;100138.81;;;30.28;44.16
28628;BME280;15815;46.760;19.604;2022-07-05T06:55:13;100140.22;;;30.40;43.85
28628;BME280;15815;46.760;19.604;2022-07-05T06:57:38;100148.31;;;30.47;44.30
28628;BME280;15815;46.760;19.604;2022-07-05T07:00:05;100150.34;;;30.52;43.51
28628;BME280;15815;46.760;19.604;2022-07-05T07:02:31;100152.38;;;30.57;44.11
28628;BME280;15815;46.760;19.604;2022-07-05T07:04:56;100147.09;;;30.61;42.86
28628;BME280;15815;46.760;19.604;2022-07-05T07:07:21;100149.66;;;30.65;42.05
28628;BME280;15815;46.760;19.604;2022-07-05T07:10:05;100139.34;;;30.69;43.54
28628;BME280;15815;46.760;19.604;2022-07-05T07:12:31;100145.84;;;30.75;43.38
28628;BME280;15815;46.760;19.604;2022-07-05T07:14:57;100143.53;;;30.87;42.66
28628;BME280;15815;46.760;19.604;2022-07-05T07:17:25;100141.31;;;30.93;41.50
28628;BME280;15815;46.760;19.604;2022-07-05T07:19:51;100139.94;;;31.00;38.60
28628;BME280;15815;46.760;19.604;2022-07-05T07:22:16;100142.97;;;31.08;38.28
28628;BME280;15815;46.760;19.604;2022-07-05T07:24:42;100133.59;;;31.15;38.43
28628;BME280;15815;46.760;19.604;2022-07-05T07:27:07;100135.03;;;31.27;38.63
28628;BME280;15815;46.760;19.604;2022-07-05T07:29:38;100133.47;;;31.39;37.78
28628;BME280;15815;46.760;19.604;2022-07-05T07:32:05;100133.03;;;31.48;36.22
28628;BME280;15815;46.760;19.604;2022-07-05T07:34:31;100141.13;;;31.55;35.48
28628;BME280;15815;46.760;19.604;2022-07-05T07:36:57;100141.56;;;31.59;36.77
28628;BME280;15815;46.760;19.604;2022-07-05T07:39:23;100137.56;;;31.62;36.66
28628;BME280;15815;46.760;19.604;2022-07-05T07:41:49;100139.00;;;31.56;35.98
28628;BME280;15815;46.760;19.604;2022-07-05T07:44:15;100141.34;;;31.57;36.89
28628;BME280;15815;46.760;19.604;2022-07-05T07:46:41;100142.03;;;31.63;36.66
28628;BME280;15815;46.760;19.604;2022-07-05T07:49:07;100135.44;;;31.63;36.31
28628;BME280;15815;46.760;19.604;2022-07-05T07:51:33;100144.72;;;31.75;36.65
28628;BME280;15815;46.760;19.604;2022-07-05T07:53:58;100131.13;;;31.83;36.04
28628;BME280;15815;46.760;19.604;2022-07-05T07:56:24;100126.41;;;31.93;37.40
28628;BME280;15815;46.760;19.604;2022-07-05T07:58:50;100125.19;;;32.02;36.44
28628;BME280;15815;46.760;19.604;2022-07-05T08:01:15;100115.69;;;32.14;36.90
28628;BME280;15815;46.760;19.604;2022-07-05T08:03:41;100124.84;;;32.32;37.18
28628;BME280;15815;46.760;19.604;2022-07-05T08:06:07;100116.88;;;32.45;37.74
28628;BME280;15815;46.760;19.604;2022-07-05T08:08:34;100103.97;;;32.54;36.67
28628;BME280;15815;46.760;19.604;2022-07-05T08:11:00;100105.34;;;32.53;36.70
28628;BME280;15815;46.760;19.604;2022-07-05T08:13:25;100105.13;;;32.51;37.36
28628;BME280;15815;46.760;19.604;2022-07-05T08:15:51;100101.13;;;32.41;36.77
28628;BME280;15815;46.760;19.604;2022-07-05T08:18:17;100100.47;;;32.35;37.85
28628;BME280;15815;46.760;19.604;2022-07-05T08:21:00;100107.84;;;32.22;37.48
28628;BME280;15815;46.760;19.604;2022-07-05T08:23:44;100113.69;;;32.09;37.17
28628;BME280;15815;46.760;19.604;2022-07-05T08:26:10;100107.75;;;32.02;37.40
28628;BME280;15815;46.760;19.604;2022-07-05T08:28:35;100107.63;;;31.94;37.88
28628;BME280;15815;46.760;19.604;2022-07-05T08:31:00;100108.31;;;31.87;37.64
28628;BME280;15815;46.760;19.604;2022-07-05T08:33:26;100106.88;;;31.80;37.88
28628;BME280;15815;46.760;19.604;2022-07-05T08:35:51;100106.19;;;31.74;38.22
28628;BME280;15815;46.760;19.604;2022-07-05T08:38:16;100104.47;;;31.65;37.99
28628;BME280;15815;46.760;19.604;2022-07-05T08:40:46;100094.88;;;31.57;38.33
28628;BME280;15815;46.760;19.604;2022-07-05T08:43:15;100095.53;;;31.50;38.80
28628;BME280;15815;46.760;19.604;2022-07-05T08:45:43;100091.16;;;31.44;39.76
28628;BME280;15815;46.760;19.604;2022-07-05T08:48:09;100093.94;;;31.36;39.91
28628;BME280;15815;46.760;19.604;2022-07-05T08:50:37;100095.06;;;31.33;40.23
28628;BME280;15815;46.760;19.604;2022-07-05T08:53:03;100092.72;;;31.31;41.19
28628;BME280;15815;46.760;19.604;2022-07-05T08:55:30;100100.63;;;31.31;40.59
28628;BME280;15815;46.760;19.604;2022-07-05T08:57:56;100107.44;;;31.33;40.25
28628;BME280;15815;46.760;19.604;2022-07-05T09:00:22;100100.53;;;31.36;39.19
28628;BME280;15815;46.760;19.604;2022-07-05T09:02:48;100101.97;;;31.43;39.56
28628;BME280;15815;46.760;19.604;2022-07-05T09:05:15;100110.28;;;31.52;39.17
28628;BME280;15815;46.760;19.604;2022-07-05T09:07:57;100104.25;;;31.63;38.81
28628;BME280;15815;46.760;19.604;2022-07-05T09:10:25;100101.22;;;31.69;37.41
28628;BME280;15815;46.760;19.604;2022-07-05T09:12:51;100106.97;;;31.75;37.48
28628;BME280;15815;46.760;19.604;2022-07-05T09:15:17;100109.00;;;31.80;37.89
28628;BME280;15815;46.760;19.604;2022-07-05T09:17:43;100109.00;;;31.80;37.87
28628;BME280;15815;46.760;19.604;2022-07-05T09:20:11;100116.94;;;31.79;37.85
28628;BME280;15815;46.760;19.604;2022-07-05T09:22:51;100114.25;;;31.81;37.23
28628;BME280;15815;46.760;19.604;2022-07-05T09:28:04;100120.06;;;32.08;37.71
28628;BME280;15815;46.760;19.604;2022-07-05T09:33:13;100106.03;;;32.46;36.13
28628;BME280;15815;46.760;19.604;2022-07-05T09:35:43;100118.53;;;32.54;36.76
28628;BME280;15815;46.760;19.604;2022-07-05T09:38:19;100115.84;;;32.56;35.50
28628;BME280;15815;46.760;19.604;2022-07-05T09:40:51;100123.47;;;32.46;36.20
28628;BME280;15815;46.760;19.604;2022-07-05T09:43:20;100123.25;;;32.44;37.03
28628;BME280;15815;46.760;19.604;2022-07-05T09:45:56;100118.09;;;32.50;37.58
28628;BME280;15815;46.760;19.604;2022-07-05T09:48:23;100115.06;;;32.55;36.83
28628;BME280;15815;46.760;19.604;2022-07-05T09:50:49;100116.72;;;32.64;37.69
28628;BME280;15815;46.760;19.604;2022-07-05T09:53:18;100118.28;;;32.65;36.67
28628;BME280;15815;46.760;19.604;2022-07-05T09:56:03;100121.63;;;32.69;36.58
28628;BME280;15815;46.760;19.604;2022-07-05T09:58:29;100124.75;;;32.71;37.02
28628;BME280;15815;46.760;19.604;2022-07-05T10:00:55;100124.75;;;32.71;37.44
28628;BME280;15815;46.760;19.604;2022-07-05T10:03:20;100124.75;;;32.71;38.63
28628;BME280;15815;46.760;19.604;2022-07-05T10:05:46;100130.78;;;32.73;38.12
28628;BME280;15815;46.760;19.604;2022-07-05T10:08:12;100130.44;;;32.77;38.49
28628;BME280;15815;46.760;19.604;2022-07-05T10:10:38;100132.09;;;32.85;38.51
28628;BME280;15815;46.760;19.604;2022-07-05T10:13:04;100135.34;;;32.95;37.71
28628;BME280;15815;46.760;19.604;2022-07-05T10:15:35;100139.94;;;32.91;37.79
28628;BME280;15815;46.760;19.604;2022-07-05T10:18:06;100140.94;;;32.93;37.90
28628;BME280;15815;46.760;19.604;2022-07-05T10:23:03;100153.50;;;32.75;38.35
28628;BME280;15815;46.760;19.604;2022-07-05T10:25:30;100161.50;;;32.61;38.59
28628;BME280;15815;46.760;19.604;2022-07-05T10:27:56;100173.25;;;32.55;39.45
28628;BME280;15815;46.760;19.604;2022-07-05T10:30:22;100167.31;;;32.61;38.31
28628;BME280;15815;46.760;19.604;2022-07-05T10:32:49;100176.94;;;32.56;38.21
28628;BME280;15815;46.760;19.604;2022-07-05T10:35:16;100178.53;;;32.44;38.30
28628;BME280;15815;46.760;19.604;2022-07-05T10:37:42;100187.47;;;32.46;39.14
28628;BME280;15815;46.760;19.604;2022-07-05T10:40:08;100198.22;;;32.38;37.94
28628;BME280;15815;46.760;19.604;2022-07-05T10:42:40;100223.59;;;32.24;38.43
28628;BME280;15815;46.760;19.604;2022-07-05T10:53:11;100220.53;;;31.07;41.15
28628;BME280;15815;46.760;19.604;2022-07-05T10:56:10;100220.72;;;30.77;41.76
28628;BME280;15815;46.760;19.604;2022-07-05T10:58:41;100214.63;;;30.56;42.19
28628;BME280;15815;46.760;19.604;2022-07-05T11:06:27;100207.00;;;30.10;43.88
28628;BME280;15815;46.760;19.604;2022-07-05T11:11:45;100219.59;;;29.88;43.72
28628;BME280;15815;46.760;19.604;2022-07-05T11:17:10;100228.50;;;29.66;45.04
28628;BME280;15815;46.760;19.604;2022-07-05T11:20:08;100236.19;;;29.58;47.84
28628;BME280;15815;46.760;19.604;2022-07-05T11:22:40;100235.50;;;29.46;49.46
28628;BME280;15815;46.760;19.604;2022-07-05T11:25:08;100236.84;;;29.39;49.78
28628;BME280;15815;46.760;19.604;2022-07-05T11:27:35;100229.19;;;29.42;49.58
28628;BME280;15815;46.760;19.604;2022-07-05T11:30:02;100230.28;;;29.39;48.31
28628;BME280;15815;46.760;19.604;2022-07-05T11:34:54;100224.97;;;29.07;48.48
28628;BME280;15815;46.760;19.604;2022-07-05T11:37:24;100245.31;;;28.90;48.05
28628;BME280;15815;46.760;19.604;2022-07-05T11:42:29;100192.72;;;28.34;51.36
28628;BME280;15815;46.760;19.604;2022-07-05T11:44:55;100197.75;;;28.11;53.45
28628;BME280;15815;46.760;19.604;2022-07-05T11:47:21;100185.50;;;27.83;54.98
28628;BME280;15815;46.760;19.604;2022-07-05T11:49:57;100199.94;;;27.55;55.99
28628;BME280;15815;46.760;19.604;2022-07-05T11:52:27;100193.91;;;27.25;57.23
28628;BME280;15815;46.760;19.604;2022-07-05T11:54:53;100192.81;;;27.05;57.57
28628;BME280;15815;46.760;19.604;2022-07-05T11:57:20;100211.13;;;26.86;58.90
28628;BME280;15815;46.760;19.604;2022-07-05T11:59:46;100226.53;;;26.71;59.22
28628;BME280;15815;46.760;19.604;2022-07-05T12:02:12;100244.59;;;26.61;60.23
28628;BME280;15815;46.760;19.604;2022-07-05T12:04:37;100238.25;;;26.51;61.86
28628;BME280;15815;46.760;19.604;2022-07-05T12:07:03;100228.25;;;26.41;62.57
28628;BME280;15815;46.760;19.604;2022-07-05T12:09:30;100233.22;;;26.35;63.09
28628;BME280;15815;46.760;19.604;2022-07-05T12:12:32;100230.50;;;26.26;63.31
28628;BME280;15815;46.760;19.604;2022-07-05T12:15:11;100235.19;;;26.17;63.81
28628;BME280;15815;46.760;19.604;2022-07-05T12:17:38;100228.59;;;26.11;64.26
28628;BME280;15815;46.760;19.604;2022-07-05T12:20:08;100230.16;;;26.07;64.76
28628;BME280;15815;46.760;19.604;2022-07-05T12:22:36;100241.63;;;26.01;64.94
28628;BME280;15815;46.760;19.604;2022-07-05T12:25:04;100239.47;;;25.91;65.09
28628;BME280;15815;46.760;19.604;2022-07-05T12:27:31;100239.16;;;25.83;65.86
28628;BME280;15815;46.760;19.604;2022-07-05T12:29:57;100247.25;;;25.79;66.04
28628;BME280;15815;46.760;19.604;2022-07-05T12:32:23;100247.97;;;25.74;66.93
28628;BME280;15815;46.760;19.604;2022-07-05T12:34:48;100243.22;;;25.71;67.02
28628;BME280;15815;46.760;19.604;2022-07-05T12:37:21;100231.66;;;25.65;66.93
28628;BME280;15815;46.760;19.604;2022-07-05T12:39:48;100233.97;;;25.61;68.52
28628;BME280;15815;46.760;19.604;2022-07-05T12:42:36;100225.59;;;25.57;68.67
28628;BME280;15815;46.760;19.604;2022-07-05T12:45:08;100223.97;;;25.51;68.96
28628;BME280;15815;46.760;19.604;2022-07-05T12:47:53;100224.75;;;25.51;68.99
28628;BME280;15815;46.760;19.604;2022-07-05T12:50:22;100210.66;;;25.53;69.24
28628;BME280;15815;46.760;19.604;2022-07-05T12:53:06;100206.47;;;25.54;68.88
28628;BME280;15815;46.760;19.604;2022-07-05T12:55:58;100201.53;;;25.61;69.30
28628;BME280;15815;46.760;19.604;2022-07-05T12:58:45;100197.41;;;25.67;69.27
28628;BME280;15815;46.760;19.604;2022-07-05T13:04:05;100195.97;;;25.83;70.07
28628;BME280;15815;46.760;19.604;2022-07-05T13:09:09;100194.03;;;26.06;68.60
28628;BME280;15815;46.760;19.604;2022-07-05T13:11:35;100196.44;;;26.18;69.24
28628;BME280;15815;46.760;19.604;2022-07-05T13:14:00;100192.56;;;26.33;68.92
28628;BME280;15815;46.760;19.604;2022-07-05T13:16:26;100187.66;;;26.44;69.00
28628;BME280;15815;46.760;19.604;2022-07-05T13:18:51;100185.06;;;26.52;68.01